sensor_id;sensor_type;location;lat;lon;timestamp;temperature;humidity
41318;DHT22;27067;51.554;7.026;2023-02-01T00:01:43;16.80;86.70
41318;DHT22;27067;51.554;7.026;2023-02-01T00:04:08;16.80;86.70
41318;DHT22;27067;51.554;7.026;2023-02-01T00:06:34;16.80;86.70
41318;DHT22;27067;51.554;7.026;2023-02-01T00:08:59;16.70;86.70
41318;DHT22;27067;51.554;7.026;2023-02-01T00:11:25;16.70;86.60
41318;DHT22;27067;51.554;7.026;2023-02-01T00:13:50;16.80;86.60
41318;DHT22;27067;51.554;7.026;2023-02-01T00:16:17;16.80;86.50
41318;DHT22;27067;51.554;7.026;2023-02-01T00:18:45;16.80;86.50
41318;DHT22;27067;51.554;7.026;2023-02-01T00:21:11;16.70;86.40
41318;DHT22;27067;51.554;7.026;2023-02-01T00:23:37;16.70;86.40
41318;DHT22;27067;51.554;7.026;2023-02-01T00:26:04;16.70;86.30
41318;DHT22;27067;51.554;7.026;2023-02-01T00:28:29;16.70;86.40
41318;DHT22;27067;51.554;7.026;2023-02-01T00:30:56;16.70;86.40
41318;DHT22;27067;51.554;7.026;2023-02-01T00:33:21;16.70;86.40
41318;DHT22;27067;51.554;7.026;2023-02-01T00:35:47;16.70;86.30
41318;DHT22;27067;51.554;7.026;2023-02-01T00:38:12;16.70;86.30
41318;DHT22;27067;51.554;7.026;2023-02-01T00:40:38;16.70;86.30
41318;DHT22;27067;51.554;7.026;2023-02-01T00:43:03;16.70;86.20
41318;DHT22;27067;51.554;7.026;2023-02-01T00:45:29;16.70;86.20
41318;DHT22;27067;51.554;7.026;2023-02-01T00:47:55;16.70;86.10
41318;DHT22;27067;51.554;7.026;2023-02-01T00:50:20;16.70;86.20
41318;DHT22;27067;51.554;7.026;2023-02-01T00:52:45;16.70;86.10
41318;DHT22;27067;51.554;7.026;2023-02-01T00:55:11;16.70;86.40
41318;DHT22;27067;51.554;7.026;2023-02-01T00:57:36;16.70;86.40
41318;DHT22;27067;51.554;7.026;2023-02-01T01:00:02;16.70;85.30
41318;DHT22;27067;51.554;7.026;2023-02-01T01:02:28;16.70;85.60
41318;DHT22;27067;51.554;7.026;2023-02-01T01:04:54;16.60;86.10
41318;DHT22;27067;51.554;7.026;2023-02-01T01:07:19;16.60;85.80
41318;DHT22;27067;51.554;7.026;2023-02-01T01:09:45;16.60;85.30
41318;DHT22;27067;51.554;7.026;2023-02-01T01:12:10;16.60;84.80
41318;DHT22;27067;51.554;7.026;2023-02-01T01:14:36;16.60;84.50
41318;DHT22;27067;51.554;7.026;2023-02-01T01:17:01;16.60;83.90
41318;DHT22;27067;51.554;7.026;2023-02-01T01:19:27;16.60;83.60
41318;DHT22;27067;51.554;7.026;2023-02-01T01:21:52;16.60;83.20
41318;DHT22;27067;51.554;7.026;2023-02-01T01:24:18;16.60;83.10
41318;DHT22;27067;51.554;7.026;2023-02-01T01:26:43;16.60;82.80
41318;DHT22;27067;51.554;7.026;2023-02-01T01:29:09;16.60;82.50
41318;DHT22;27067;51.554;7.026;2023-02-01T01:31:35;16.60;82.30
41318;DHT22;27067;51.554;7.026;2023-02-01T01:34:00;16.60;82.20
41318;DHT22;27067;51.554;7.026;2023-02-01T01:36:26;16.60;82.10
41318;DHT22;27067;51.554;7.026;2023-02-01T01:38:52;16.50;81.80
41318;DHT22;27067;51.554;7.026;2023-02-01T01:41:21;16.50;81.80
41318;DHT22;27067;51.554;7.026;2023-02-01T01:44:53;16.50;81.60
41318;DHT22;27067;51.554;7.026;2023-02-01T01:46:37;16.50;82.00
41318;DHT22;27067;51.554;7.026;2023-02-01T01:49:07;16.50;81.40
41318;DHT22;27067;51.554;7.026;2023-02-01T01:51:41;16.50;81.20
41318;DHT22;27067;51.554;7.026;2023-02-01T01:54:17;16.50;80.80
41318;DHT22;27067;51.554;7.026;2023-02-01T01:56:44;16.50;80.70
41318;DHT22;27067;51.554;7.026;2023-02-01T01:59:11;16.50;80.40
41318;DHT22;27067;51.554;7.026;2023-02-01T02:01:38;16.40;80.30
41318;DHT22;27067;51.554;7.026;2023-02-01T02:04:03;16.40;80.30
41318;DHT22;27067;51.554;7.026;2023-02-01T02:06:40;16.40;80.30
41318;DHT22;27067;51.554;7.026;2023-02-01T03:01:05;16.30;78.90
41318;DHT22;27067;51.554;7.026;2023-02-01T03:03:49;16.20;78.70
41318;DHT22;27067;51.554;7.026;2023-02-01T03:06:33;16.30;78.70
41318;DHT22;27067;51.554;7.026;2023-02-01T03:09:00;16.30;78.70
41318;DHT22;27067;51.554;7.026;2023-02-01T03:11:27;16.20;78.60
41318;DHT22;27067;51.554;7.026;2023-02-01T03:14:12;16.30;78.60
41318;DHT22;27067;51.554;7.026;2023-02-01T03:16:44;16.30;78.40
41318;DHT22;27067;51.554;7.026;2023-02-01T03:19:14;16.20;78.30
41318;DHT22;27067;51.554;7.026;2023-02-01T03:21:45;16.20;78.20
41318;DHT22;27067;51.554;7.026;2023-02-01T03:32:19;16.20;78.00
41318;DHT22;27067;51.554;7.026;2023-02-01T03:34:45;16.20;78.10
41318;DHT22;27067;51.554;7.026;2023-02-01T03:37:12;16.20;78.10
41318;DHT22;27067;51.554;7.026;2023-02-01T03:42:17;16.20;78.20
41318;DHT22;27067;51.554;7.026;2023-02-01T03:44:56;16.20;78.20
41318;DHT22;27067;51.554;7.026;2023-02-01T03:47:24;16.20;78.20
41318;DHT22;27067;51.554;7.026;2023-02-01T03:49:51;16.20;78.10
41318;DHT22;27067;51.554;7.026;2023-02-01T03:52:23;16.10;77.90
41318;DHT22;27067;51.554;7.026;2023-02-01T03:54:50;16.10;78.00
41318;DHT22;27067;51.554;7.026;2023-02-01T03:57:16;16.10;78.50
41318;DHT22;27067;51.554;7.026;2023-02-01T03:59:44;16.10;77.80
41318;DHT22;27067;51.554;7.026;2023-02-01T04:02:10;16.10;77.70
41318;DHT22;27067;51.554;7.026;2023-02-01T04:04:36;16.10;77.80
41318;DHT22;27067;51.554;7.026;2023-02-01T04:07:01;16.10;77.80
41318;DHT22;27067;51.554;7.026;2023-02-01T04:09:27;16.10;77.80
41318;DHT22;27067;51.554;7.026;2023-02-01T04:11:52;16.10;77.80
41318;DHT22;27067;51.554;7.026;2023-02-01T04:14:18;16.10;77.70
41318;DHT22;27067;51.554;7.026;2023-02-01T04:16:44;16.10;77.70
41318;DHT22;27067;51.554;7.026;2023-02-01T04:19:10;16.10;77.70
41318;DHT22;27067;51.554;7.026;2023-02-01T04:21:36;16.10;77.70
41318;DHT22;27067;51.554;7.026;2023-02-01T04:24:01;16.10;77.70
41318;DHT22;27067;51.554;7.026;2023-02-01T04:26:27;16.00;77.90
41318;DHT22;27067;51.554;7.026;2023-02-01T04:28:52;16.10;78.20
41318;DHT22;27067;51.554;7.026;2023-02-01T04:31:18;16.10;78.70
41318;DHT22;27067;51.554;7.026;2023-02-01T04:33:54;16.10;80.30
41318;DHT22;27067;51.554;7.026;2023-02-01T04:36:20;16.10;82.20
41318;DHT22;27067;51.554;7.026;2023-02-01T04:38:48;16.10;83.50
41318;DHT22;27067;51.554;7.026;2023-02-01T04:41:14;16.10;85.60
41318;DHT22;27067;51.554;7.026;2023-02-01T04:43:40;16.20;86.20
41318;DHT22;27067;51.554;7.026;2023-02-01T04:46:06;16.20;86.80
41318;DHT22;27067;51.554;7.026;2023-02-01T04:48:31;16.20;87.20
41318;DHT22;27067;51.554;7.026;2023-02-01T04:50:57;16.20;87.40
41318;DHT22;27067;51.554;7.026;2023-02-01T04:53:23;16.20;88.20
41318;DHT22;27067;51.554;7.026;2023-02-01T04:55:48;16.20;88.00
41318;DHT22;27067;51.554;7.026;2023-02-01T04:58:15;16.20;87.60
41318;DHT22;27067;51.554;7.026;2023-02-01T05:00:41;16.20;87.20
41318;DHT22;27067;51.554;7.026;2023-02-01T05:03:06;16.20;86.80
41318;DHT22;27067;51.554;7.026;2023-02-01T05:05:32;16.20;86.50
41318;DHT22;27067;51.554;7.026;2023-02-01T05:07:57;16.20;86.90
41318;DHT22;27067;51.554;7.026;2023-02-01T05:10:23;16.20;86.40
41318;DHT22;27067;51.554;7.026;2023-02-01T05:12:49;16.10;86.40
41318;DHT22;27067;51.554;7.026;2023-02-01T05:15:33;16.20;86.40
41318;DHT22;27067;51.554;7.026;2023-02-01T05:17:58;16.20;86.40
41318;DHT22;27067;51.554;7.026;2023-02-01T05:20:24;16.30;86.40
41318;DHT22;27067;51.554;7.026;2023-02-01T05:22:50;16.30;86.20
41318;DHT22;27067;51.554;7.026;2023-02-01T05:25:15;16.40;86.00
41318;DHT22;27067;51.554;7.026;2023-02-01T05:27:41;16.40;85.80
41318;DHT22;27067;51.554;7.026;2023-02-01T05:30:07;16.50;85.70
41318;DHT22;27067;51.554;7.026;2023-02-01T05:32:33;16.60;85.40
41318;DHT22;27067;51.554;7.026;2023-02-01T05:34:58;16.60;85.00
41318;DHT22;27067;51.554;7.026;2023-02-01T05:37:24;16.70;84.70
41318;DHT22;27067;51.554;7.026;2023-02-01T05:39:50;16.80;84.40
41318;DHT22;27067;51.554;7.026;2023-02-01T05:42:15;16.80;84.00
41318;DHT22;27067;51.554;7.026;2023-02-01T05:44:41;16.90;83.60
41318;DHT22;27067;51.554;7.026;2023-02-01T05:47:06;16.90;83.20
41318;DHT22;27067;51.554;7.026;2023-02-01T05:49:32;17.00;83.00
41318;DHT22;27067;51.554;7.026;2023-02-01T05:51:58;17.00;82.60
41318;DHT22;27067;51.554;7.026;2023-02-01T05:54:23;17.00;82.30
41318;DHT22;27067;51.554;7.026;2023-02-01T05:56:49;17.00;82.00
41318;DHT22;27067;51.554;7.026;2023-02-01T05:59:14;17.00;81.90
41318;DHT22;27067;51.554;7.026;2023-02-01T06:01:40;17.00;81.70
41318;DHT22;27067;51.554;7.026;2023-02-01T06:04:05;17.00;81.60
41318;DHT22;27067;51.554;7.026;2023-02-01T06:06:31;17.00;81.50
41318;DHT22;27067;51.554;7.026;2023-02-01T06:08:57;16.90;81.30
41318;DHT22;27067;51.554;7.026;2023-02-01T06:11:22;16.90;81.20
41318;DHT22;27067;51.554;7.026;2023-02-01T06:13:48;16.90;81.10
41318;DHT22;27067;51.554;7.026;2023-02-01T06:16:13;16.90;81.10
41318;DHT22;27067;51.554;7.026;2023-02-01T06:18:40;16.90;81.10
41318;DHT22;27067;51.554;7.026;2023-02-01T06:21:06;16.80;81.00
41318;DHT22;27067;51.554;7.026;2023-02-01T06:23:32;16.80;81.10
41318;DHT22;27067;51.554;7.026;2023-02-01T06:25:58;16.80;81.10
41318;DHT22;27067;51.554;7.026;2023-02-01T06:28:24;16.80;81.10
41318;DHT22;27067;51.554;7.026;2023-02-01T06:30:50;16.80;81.10
41318;DHT22;27067;51.554;7.026;2023-02-01T06:33:16;16.70;81.00
41318;DHT22;27067;51.554;7.026;2023-02-01T06:35:42;16.70;81.00
41318;DHT22;27067;51.554;7.026;2023-02-01T06:38:10;16.70;81.00
41318;DHT22;27067;51.554;7.026;2023-02-01T06:40:37;16.70;81.00
41318;DHT22;27067;51.554;7.026;2023-02-01T06:43:02;16.70;81.60
41318;DHT22;27067;51.554;7.026;2023-02-01T06:45:28;16.60;80.90
41318;DHT22;27067;51.554;7.026;2023-02-01T06:47:54;16.60;80.80
41318;DHT22;27067;51.554;7.026;2023-02-01T06:50:19;16.60;80.80
41318;DHT22;27067;51.554;7.026;2023-02-01T06:52:45;16.60;80.80
41318;DHT22;27067;51.554;7.026;2023-02-01T06:55:11;16.70;80.90
41318;DHT22;27067;51.554;7.026;2023-02-01T06:57:37;16.60;80.80
41318;DHT22;27067;51.554;7.026;2023-02-01T07:00:03;16.60;80.90
41318;DHT22;27067;51.554;7.026;2023-02-01T07:02:28;16.60;81.00
41318;DHT22;27067;51.554;7.026;2023-02-01T07:04:54;16.70;81.90
41318;DHT22;27067;51.554;7.026;2023-02-01T07:07:19;16.70;81.30
41318;DHT22;27067;51.554;7.026;2023-02-01T07:09:50;16.80;81.40
41318;DHT22;27067;51.554;7.026;2023-02-01T07:12:16;16.80;81.30
41318;DHT22;27067;51.554;7.026;2023-02-01T07:14:42;16.80;81.20
41318;DHT22;27067;51.554;7.026;2023-02-01T07:17:07;16.90;81.70
41318;DHT22;27067;51.554;7.026;2023-02-01T07:19:33;17.00;80.90
41318;DHT22;27067;51.554;7.026;2023-02-01T07:21:58;17.00;80.80
41318;DHT22;27067;51.554;7.026;2023-02-01T07:24:24;17.00;82.60
41318;DHT22;27067;51.554;7.026;2023-02-01T07:26:49;17.10;85.80
41318;DHT22;27067;51.554;7.026;2023-02-01T07:29:16;17.10;87.20
41318;DHT22;27067;51.554;7.026;2023-02-01T07:31:42;17.10;87.60
41318;DHT22;27067;51.554;7.026;2023-02-01T07:34:07;17.10;87.80
41318;DHT22;27067;51.554;7.026;2023-02-01T07:36:33;17.10;87.80
41318;DHT22;27067;51.554;7.026;2023-02-01T07:38:59;17.00;87.70
41318;DHT22;27067;51.554;7.026;2023-02-01T07:41:25;17.10;87.60
41318;DHT22;27067;51.554;7.026;2023-02-01T07:43:54;17.00;87.30
41318;DHT22;27067;51.554;7.026;2023-02-01T07:46:19;17.00;87.00
41318;DHT22;27067;51.554;7.026;2023-02-01T07:48:45;17.00;86.70
41318;DHT22;27067;51.554;7.026;2023-02-01T07:51:12;16.90;86.40
41318;DHT22;27067;51.554;7.026;2023-02-01T07:53:38;16.90;86.20
41318;DHT22;27067;51.554;7.026;2023-02-01T07:56:03;16.90;86.00
41318;DHT22;27067;51.554;7.026;2023-02-01T07:58:29;16.90;85.90
41318;DHT22;27067;51.554;7.026;2023-02-01T08:00:55;16.80;85.70
41318;DHT22;27067;51.554;7.026;2023-02-01T08:03:39;16.80;85.50
41318;DHT22;27067;51.554;7.026;2023-02-01T08:06:06;16.80;85.30
41318;DHT22;27067;51.554;7.026;2023-02-01T08:08:32;16.80;85.10
41318;DHT22;27067;51.554;7.026;2023-02-01T08:10:58;16.80;85.00
41318;DHT22;27067;51.554;7.026;2023-02-01T08:13:24;16.70;84.80
41318;DHT22;27067;51.554;7.026;2023-02-01T08:15:49;16.70;84.70
41318;DHT22;27067;51.554;7.026;2023-02-01T08:18:15;16.70;84.60
41318;DHT22;27067;51.554;7.026;2023-02-01T08:20:43;16.70;84.40
41318;DHT22;27067;51.554;7.026;2023-02-01T08:23:11;16.70;84.30
41318;DHT22;27067;51.554;7.026;2023-02-01T08:25:37;16.70;84.20
41318;DHT22;27067;51.554;7.026;2023-02-01T08:28:03;16.70;84.10
41318;DHT22;27067;51.554;7.026;2023-02-01T08:30:29;16.70;84.00
41318;DHT22;27067;51.554;7.026;2023-02-01T08:32:54;16.70;83.80
41318;DHT22;27067;51.554;7.026;2023-02-01T08:35:20;16.60;83.70
41318;DHT22;27067;51.554;7.026;2023-02-01T08:37:46;16.60;83.60
41318;DHT22;27067;51.554;7.026;2023-02-01T08:40:11;16.60;83.50
41318;DHT22;27067;51.554;7.026;2023-02-01T08:42:39;16.60;83.40
41318;DHT22;27067;51.554;7.026;2023-02-01T08:45:17;16.60;83.20
41318;DHT22;27067;51.554;7.026;2023-02-01T08:47:44;16.60;83.10
41318;DHT22;27067;51.554;7.026;2023-02-01T08:50:09;16.60;83.10
41318;DHT22;27067;51.554;7.026;2023-02-01T08:52:35;16.60;83.00
41318;DHT22;27067;51.554;7.026;2023-02-01T08:55:01;16.60;82.90
41318;DHT22;27067;51.554;7.026;2023-02-01T08:57:27;16.60;83.00
41318;DHT22;27067;51.554;7.026;2023-02-01T08:59:52;16.50;82.90
41318;DHT22;27067;51.554;7.026;2023-02-01T09:02:18;16.60;82.80
41318;DHT22;27067;51.554;7.026;2023-02-01T09:04:43;16.50;82.60
41318;DHT22;27067;51.554;7.026;2023-02-01T09:07:09;16.50;82.50
41318;DHT22;27067;51.554;7.026;2023-02-01T09:09:35;16.50;82.50
41318;DHT22;27067;51.554;7.026;2023-02-01T09:12:02;16.50;82.50
41318;DHT22;27067;51.554;7.026;2023-02-01T09:14:27;16.50;82.50
41318;DHT22;27067;51.554;7.026;2023-02-01T09:16:53;16.50;82.50
41318;DHT22;27067;51.554;7.026;2023-02-01T09:19:18;16.50;82.40
41318;DHT22;27067;51.554;7.026;2023-02-01T09:21:44;16.50;82.40
41318;DHT22;27067;51.554;7.026;2023-02-01T09:24:10;16.50;82.40
41318;DHT22;27067;51.554;7.026;2023-02-01T09:26:36;16.50;82.40
41318;DHT22;27067;51.554;7.026;2023-02-01T09:29:02;16.50;82.50
41318;DHT22;27067;51.554;7.026;2023-02-01T09:31:28;16.50;82.50
41318;DHT22;27067;51.554;7.026;2023-02-01T09:33:54;16.50;82.50
41318;DHT22;27067;51.554;7.026;2023-02-01T09:36:20;16.50;82.50
41318;DHT22;27067;51.554;7.026;2023-02-01T09:38:46;16.50;82.40
41318;DHT22;27067;51.554;7.026;2023-02-01T09:41:32;16.40;82.40
41318;DHT22;27067;51.554;7.026;2023-02-01T09:46:32;16.40;82.30
41318;DHT22;27067;51.554;7.026;2023-02-01T09:49:20;16.40;82.30
41318;DHT22;27067;51.554;7.026;2023-02-01T09:51:48;16.40;82.30
41318;DHT22;27067;51.554;7.026;2023-02-01T09:54:15;16.40;82.80
41318;DHT22;27067;51.554;7.026;2023-02-01T10:01:47;16.40;82.00
41318;DHT22;27067;51.554;7.026;2023-02-01T10:04:13;16.40;82.00
41318;DHT22;27067;51.554;7.026;2023-02-01T10:25:05;16.30;81.80
41318;DHT22;27067;51.554;7.026;2023-02-01T10:27:34;16.30;81.80
41318;DHT22;27067;51.554;7.026;2023-02-01T10:30:03;16.30;81.80
41318;DHT22;27067;51.554;7.026;2023-02-01T10:32:33;16.30;81.70
41318;DHT22;27067;51.554;7.026;2023-02-01T10:35:00;16.40;81.70
41318;DHT22;27067;51.554;7.026;2023-02-01T10:37:31;16.30;81.70
41318;DHT22;27067;51.554;7.026;2023-02-01T10:39:58;16.30;81.70
41318;DHT22;27067;51.554;7.026;2023-02-01T10:42:25;16.30;81.80
41318;DHT22;27067;51.554;7.026;2023-02-01T10:44:51;16.30;81.90
41318;DHT22;27067;51.554;7.026;2023-02-01T10:47:18;16.30;82.10
41318;DHT22;27067;51.554;7.026;2023-02-01T10:49:47;16.30;82.30
41318;DHT22;27067;51.554;7.026;2023-02-01T10:52:25;16.30;82.30
41318;DHT22;27067;51.554;7.026;2023-02-01T10:54:54;16.40;82.30
41318;DHT22;27067;51.554;7.026;2023-02-01T10:57:21;16.30;82.30
41318;DHT22;27067;51.554;7.026;2023-02-01T10:59:46;16.30;82.30
41318;DHT22;27067;51.554;7.026;2023-02-01T11:02:25;16.30;82.30
41318;DHT22;27067;51.554;7.026;2023-02-01T11:05:03;16.30;82.30
41318;DHT22;27067;51.554;7.026;2023-02-01T11:07:29;16.30;82.30
41318;DHT22;27067;51.554;7.026;2023-02-01T11:09:56;16.30;82.30
41318;DHT22;27067;51.554;7.026;2023-02-01T11:12:25;16.30;82.30
41318;DHT22;27067;51.554;7.026;2023-02-01T11:14:50;16.30;82.30
41318;DHT22;27067;51.554;7.026;2023-02-01T11:17:19;16.30;82.30
41318;DHT22;27067;51.554;7.026;2023-02-01T11:19:58;16.30;82.20
41318;DHT22;27067;51.554;7.026;2023-02-01T11:22:25;16.30;82.20
41318;DHT22;27067;51.554;7.026;2023-02-01T11:24:52;16.40;82.20
41318;DHT22;27067;51.554;7.026;2023-02-01T11:27:18;16.40;82.20
41318;DHT22;27067;51.554;7.026;2023-02-01T11:29:46;16.30;82.10
41318;DHT22;27067;51.554;7.026;2023-02-01T11:32:13;16.30;82.10
41318;DHT22;27067;51.554;7.026;2023-02-01T11:37:13;16.30;82.00
41318;DHT22;27067;51.554;7.026;2023-02-01T11:39:40;16.30;82.00
41318;DHT22;27067;51.554;7.026;2023-02-01T11:42:13;16.30;82.00
41318;DHT22;27067;51.554;7.026;2023-02-01T11:44:40;16.30;81.90
41318;DHT22;27067;51.554;7.026;2023-02-01T11:49:44;16.30;81.90
41318;DHT22;27067;51.554;7.026;2023-02-01T12:15:05;16.30;81.90
41318;DHT22;27067;51.554;7.026;2023-02-01T12:28:02;16.30;82.00
41318;DHT22;27067;51.554;7.026;2023-02-01T12:43:01;16.30;81.30
41318;DHT22;27067;51.554;7.026;2023-02-01T12:45:38;16.30;81.20
41318;DHT22;27067;51.554;7.026;2023-02-01T12:48:11;16.20;80.80
41318;DHT22;27067;51.554;7.026;2023-02-01T12:50:49;16.30;80.50
41318;DHT22;27067;51.554;7.026;2023-02-01T12:53:18;16.20;80.10
41318;DHT22;27067;51.554;7.026;2023-02-01T12:55:53;16.20;79.80
41318;DHT22;27067;51.554;7.026;2023-02-01T12:58:22;16.20;79.70
41318;DHT22;27067;51.554;7.026;2023-02-01T13:03:17;16.20;79.70
41318;DHT22;27067;51.554;7.026;2023-02-01T13:05:51;16.20;79.80
41318;DHT22;27067;51.554;7.026;2023-02-01T13:08:24;16.20;79.90
41318;DHT22;27067;51.554;7.026;2023-02-01T13:10:56;16.20;80.20
41318;DHT22;27067;51.554;7.026;2023-02-01T13:13:41;16.20;81.30
41318;DHT22;27067;51.554;7.026;2023-02-01T13:16:16;16.20;82.00
41318;DHT22;27067;51.554;7.026;2023-02-01T13:18:43;16.20;82.00
41318;DHT22;27067;51.554;7.026;2023-02-01T13:21:27;16.20;82.40
41318;DHT22;27067;51.554;7.026;2023-02-01T13:23:54;16.30;82.90
41318;DHT22;27067;51.554;7.026;2023-02-01T13:26:20;16.20;83.00
41318;DHT22;27067;51.554;7.026;2023-02-01T13:28:46;16.20;83.20
41318;DHT22;27067;51.554;7.026;2023-02-01T13:41:30;16.20;84.30
41318;DHT22;27067;51.554;7.026;2023-02-01T13:43:58;16.20;84.40
41318;DHT22;27067;51.554;7.026;2023-02-01T13:46:25;16.20;84.50
41318;DHT22;27067;51.554;7.026;2023-02-01T13:48:52;16.20;84.50
41318;DHT22;27067;51.554;7.026;2023-02-01T13:51:31;16.20;84.50
41318;DHT22;27067;51.554;7.026;2023-02-01T13:53:57;16.20;84.40
41318;DHT22;27067;51.554;7.026;2023-02-01T13:56:23;16.20;84.30
41318;DHT22;27067;51.554;7.026;2023-02-01T13:58:50;16.20;84.30
41318;DHT22;27067;51.554;7.026;2023-02-01T14:11:39;16.20;83.70
41318;DHT22;27067;51.554;7.026;2023-02-01T14:16:43;16.20;83.40
41318;DHT22;27067;51.554;7.026;2023-02-01T14:21:50;16.30;83.20
41318;DHT22;27067;51.554;7.026;2023-02-01T14:24:27;16.20;83.10
41318;DHT22;27067;51.554;7.026;2023-02-01T14:26:54;16.20;83.00
41318;DHT22;27067;51.554;7.026;2023-02-01T14:44:41;16.30;82.60
41318;DHT22;27067;51.554;7.026;2023-02-01T14:49:32;16.30;82.50
41318;DHT22;27067;51.554;7.026;2023-02-01T14:51:58;16.30;82.40
41318;DHT22;27067;51.554;7.026;2023-02-01T14:54:24;16.30;82.40
41318;DHT22;27067;51.554;7.026;2023-02-01T14:56:51;16.30;82.30
41318;DHT22;27067;51.554;7.026;2023-02-01T14:59:17;16.20;82.20
41318;DHT22;27067;51.554;7.026;2023-02-01T15:01:48;16.30;82.20
41318;DHT22;27067;51.554;7.026;2023-02-01T15:04:16;16.30;82.20
41318;DHT22;27067;51.554;7.026;2023-02-01T15:06:50;16.30;82.10
41318;DHT22;27067;51.554;7.026;2023-02-01T15:09:31;16.20;82.00
41318;DHT22;27067;51.554;7.026;2023-02-01T15:14:27;16.30;81.80
41318;DHT22;27067;51.554;7.026;2023-02-01T15:16:53;16.20;81.60
41318;DHT22;27067;51.554;7.026;2023-02-01T15:19:22;16.30;81.50
41318;DHT22;27067;51.554;7.026;2023-02-01T15:21:49;16.20;81.40
41318;DHT22;27067;51.554;7.026;2023-02-01T15:24:21;16.20;81.30
41318;DHT22;27067;51.554;7.026;2023-02-01T15:26:47;16.20;81.20
41318;DHT22;27067;51.554;7.026;2023-02-01T15:29:13;16.20;81.20
41318;DHT22;27067;51.554;7.026;2023-02-01T15:31:40;16.20;81.20
41318;DHT22;27067;51.554;7.026;2023-02-01T15:34:06;16.30;81.20
41318;DHT22;27067;51.554;7.026;2023-02-01T15:36:32;16.20;81.30
41318;DHT22;27067;51.554;7.026;2023-02-01T15:41:36;16.20;81.10
41318;DHT22;27067;51.554;7.026;2023-02-01T15:44:10;16.20;81.10
41318;DHT22;27067;51.554;7.026;2023-02-01T15:46:41;16.20;81.00
41318;DHT22;27067;51.554;7.026;2023-02-01T15:49:19;16.20;81.00
41318;DHT22;27067;51.554;7.026;2023-02-01T15:51:45;16.20;80.90
41318;DHT22;27067;51.554;7.026;2023-02-01T15:54:13;16.30;81.00
41318;DHT22;27067;51.554;7.026;2023-02-01T15:56:44;16.20;80.90
41318;DHT22;27067;51.554;7.026;2023-02-01T15:59:17;16.20;80.90
41318;DHT22;27067;51.554;7.026;2023-02-01T16:01:43;16.20;80.80
41318;DHT22;27067;51.554;7.026;2023-02-01T16:06:44;16.20;80.80
41318;DHT22;27067;51.554;7.026;2023-02-01T16:09:13;16.20;81.00
41318;DHT22;27067;51.554;7.026;2023-02-01T16:11:52;16.20;81.10
41318;DHT22;27067;51.554;7.026;2023-02-01T16:14:17;16.30;81.90
41318;DHT22;27067;51.554;7.026;2023-02-01T16:16:43;16.30;81.50
41318;DHT22;27067;51.554;7.026;2023-02-01T16:19:09;16.30;81.60
41318;DHT22;27067;51.554;7.026;2023-02-01T16:21:35;16.40;81.80
41318;DHT22;27067;51.554;7.026;2023-02-01T16:24:00;16.40;81.60
41318;DHT22;27067;51.554;7.026;2023-02-01T16:26:29;16.50;81.60
41318;DHT22;27067;51.554;7.026;2023-02-01T16:28:55;16.60;81.50
41318;DHT22;27067;51.554;7.026;2023-02-01T16:31:21;16.60;81.30
41318;DHT22;27067;51.554;7.026;2023-02-01T16:33:49;16.70;81.10
41318;DHT22;27067;51.554;7.026;2023-02-01T16:36:15;16.70;81.60
41318;DHT22;27067;51.554;7.026;2023-02-01T16:38:41;16.70;80.90
41318;DHT22;27067;51.554;7.026;2023-02-01T16:41:08;16.80;80.70
41318;DHT22;27067;51.554;7.026;2023-02-01T16:43:35;16.80;80.60
41318;DHT22;27067;51.554;7.026;2023-02-01T16:46:00;16.70;80.50
41318;DHT22;27067;51.554;7.026;2023-02-01T16:50:56;16.70;80.30
41318;DHT22;27067;51.554;7.026;2023-02-01T16:53:22;16.70;80.30
41318;DHT22;27067;51.554;7.026;2023-02-01T16:55:49;16.70;80.30
41318;DHT22;27067;51.554;7.026;2023-02-01T16:58:15;16.70;80.20
41318;DHT22;27067;51.554;7.026;2023-02-01T17:00:41;16.70;80.20
41318;DHT22;27067;51.554;7.026;2023-02-01T17:03:07;16.60;80.10
41318;DHT22;27067;51.554;7.026;2023-02-01T17:05:33;16.60;80.10
41318;DHT22;27067;51.554;7.026;2023-02-01T17:07:59;16.60;80.10
41318;DHT22;27067;51.554;7.026;2023-02-01T17:10:29;16.60;80.30
41318;DHT22;27067;51.554;7.026;2023-02-01T17:12:58;16.60;80.40
41318;DHT22;27067;51.554;7.026;2023-02-01T17:15:27;16.50;80.50
41318;DHT22;27067;51.554;7.026;2023-02-01T17:17:54;16.60;80.60
41318;DHT22;27067;51.554;7.026;2023-02-01T17:20:22;16.50;80.70
41318;DHT22;27067;51.554;7.026;2023-02-01T17:22:48;16.50;80.70
41318;DHT22;27067;51.554;7.026;2023-02-01T17:25:15;16.50;81.40
41318;DHT22;27067;51.554;7.026;2023-02-01T17:27:41;16.50;80.80
41318;DHT22;27067;51.554;7.026;2023-02-01T17:30:07;16.50;80.80
41318;DHT22;27067;51.554;7.026;2023-02-01T17:32:34;16.50;80.80
41318;DHT22;27067;51.554;7.026;2023-02-01T17:35:00;16.50;80.90
41318;DHT22;27067;51.554;7.026;2023-02-01T17:37:27;16.50;80.90
41318;DHT22;27067;51.554;7.026;2023-02-01T17:39:53;16.50;80.90
41318;DHT22;27067;51.554;7.026;2023-02-01T17:42:25;16.50;80.90
41318;DHT22;27067;51.554;7.026;2023-02-01T17:44:52;16.50;80.90
41318;DHT22;27067;51.554;7.026;2023-02-01T17:47:19;16.50;80.90
41318;DHT22;27067;51.554;7.026;2023-02-01T17:49:45;16.50;80.90
41318;DHT22;27067;51.554;7.026;2023-02-01T17:52:15;16.50;80.90
41318;DHT22;27067;51.554;7.026;2023-02-01T17:54:41;16.50;80.80
41318;DHT22;27067;51.554;7.026;2023-02-01T17:57:13;16.50;80.80
41318;DHT22;27067;51.554;7.026;2023-02-01T17:59:38;16.50;80.80
41318;DHT22;27067;51.554;7.026;2023-02-01T18:02:10;16.50;80.80
41318;DHT22;27067;51.554;7.026;2023-02-01T18:04:41;16.50;80.80
41318;DHT22;27067;51.554;7.026;2023-02-01T18:07:07;16.50;80.90
41318;DHT22;27067;51.554;7.026;2023-02-01T18:09:33;16.50;81.00
41318;DHT22;27067;51.554;7.026;2023-02-01T18:11:58;16.40;81.10
41318;DHT22;27067;51.554;7.026;2023-02-01T18:14:24;16.40;81.20
41318;DHT22;27067;51.554;7.026;2023-02-01T18:16:49;16.40;81.30
41318;DHT22;27067;51.554;7.026;2023-02-01T18:19:15;16.40;81.40
41318;DHT22;27067;51.554;7.026;2023-02-01T18:21:41;16.40;81.40
41318;DHT22;27067;51.554;7.026;2023-02-01T18:24:09;16.40;81.40
41318;DHT22;27067;51.554;7.026;2023-02-01T18:26:36;16.50;81.50
41318;DHT22;27067;51.554;7.026;2023-02-01T18:29:01;16.50;81.40
41318;DHT22;27067;51.554;7.026;2023-02-01T18:31:28;16.40;81.30
41318;DHT22;27067;51.554;7.026;2023-02-01T18:33:55;16.50;81.30
41318;DHT22;27067;51.554;7.026;2023-02-01T18:36:21;16.40;81.20
41318;DHT22;27067;51.554;7.026;2023-02-01T18:38:46;16.40;81.20
41318;DHT22;27067;51.554;7.026;2023-02-01T18:41:13;16.40;81.20
41318;DHT22;27067;51.554;7.026;2023-02-01T18:43:42;16.40;81.20
41318;DHT22;27067;51.554;7.026;2023-02-01T18:46:10;16.40;81.10
41318;DHT22;27067;51.554;7.026;2023-02-01T18:48:36;16.40;81.10